Time;durP1;ratioP1;P1;durP2;ratioP2;P2;SDS_P1;SDS_P2;PMS_P1;PMS_P2;Temp;Humidity;BMP_temperature;BMP_pressure;BME280_temperature;BME280_humidity;BME280_pressure;Samples;Min_cycle;Max_cycle;Signal;HPM_P1;HPM_P2
2023/01/27 00:00:11;;;;;;;16.70;8.65;;;;;;;-2.94;81.36;99592.84;7342538;19;20011;-73
2023/01/27 00:02:40;;;;;;;12.75;6.75;;;;;;;-2.76;81.04;99602.06;7343200;19;20027;-68
2023/01/27 00:05:06;;;;;;;13.38;6.13;;;;;;;-2.88;81.17;99599.69;7343792;19;20015;-71
2023/01/27 00:07:30;;;;;;;11.00;5.90;;;;;;;-2.92;81.23;99591.91;7342415;19;20037;-72
2023/01/27 00:09:55;;;;;;;11.07;6.60;;;;;;;-2.99;81.51;99595.53;7340756;19;20010;-70
2023/01/27 00:15:09;;;;;;;15.68;7.38;;;;;;;-2.94;81.62;99616.31;7342224;19;20453;-71
2023/01/27 00:17:34;;;;;;;14.55;5.43;;;;;;;-2.89;81.83;99609.25;7343037;19;20078;-70
2023/01/27 00:19:59;;;;;;;16.02;8.45;;;;;;;-2.97;82.05;99613.75;7342238;19;20031;-73
2023/01/27 00:25:07;;;;;;;13.85;7.15;;;;;;;-3.06;82.09;99613.94;7336015;19;20469;-74
2023/01/27 00:27:32;;;;;;;12.35;6.30;;;;;;;-2.94;82.28;99611.09;7339339;19;20469;-70
2023/01/27 00:29:56;;;;;;;11.05;7.00;;;;;;;-2.95;82.23;99605.03;7341550;19;20318;-72
2023/01/27 00:35:08;;;;;;;9.55;5.65;;;;;;;-2.89;82.01;99606.66;7342229;19;20325;-70
2023/01/27 00:37:33;;;;;;;13.95;7.10;;;;;;;-2.86;81.87;99593.56;7333650;19;20026;-72
2023/01/27 00:39:57;;;;;;;10.82;6.75;;;;;;;-2.95;81.89;99596.34;7339858;19;20003;-71
2023/01/27 00:42:22;;;;;;;8.82;5.38;;;;;;;-3.04;82.02;99602.56;7340160;19;20015;-69
2023/01/27 00:47:30;;;;;;;12.25;6.70;;;;;;;-3.15;82.30;99609.69;7339749;19;20025;-70
2023/01/27 00:49:55;;;;;;;14.93;7.35;;;;;;;-3.16;82.42;99604.53;7343086;19;20018;-66
2023/01/27 00:52:19;;;;;;;9.90;5.68;;;;;;;-3.29;83.14;99603.88;7342546;19;20011;-68
2023/01/27 00:54:44;;;;;;;11.05;5.60;;;;;;;-3.22;83.36;99602.03;7341215;19;20011;-71
2023/01/27 00:57:09;;;;;;;10.15;5.45;;;;;;;-3.23;83.57;99600.28;7340331;19;20018;-70
2023/01/27 00:59:33;;;;;;;11.10;6.35;;;;;;;-3.30;83.61;99602.16;7342027;19;20097;-71
2023/01/27 01:01:58;;;;;;;8.52;5.60;;;;;;;-3.14;83.15;99592.31;7339314;19;20010;-70
2023/01/27 01:04:22;;;;;;;9.32;5.82;;;;;;;-3.19;83.57;99584.59;7340168;19;20328;-72
2023/01/27 01:06:48;;;;;;;9.55;6.10;;;;;;;-3.32;83.63;99585.69;7339898;19;20014;-71
2023/01/27 01:09:12;;;;;;;9.63;5.85;;;;;;;-3.36;83.72;99584.84;7338916;19;20074;-72
2023/01/27 01:11:37;;;;;;;11.00;6.30;;;;;;;-3.43;84.31;99585.00;7346300;19;20373;-73
2023/01/27 01:14:02;;;;;;;10.80;6.45;;;;;;;-3.44;84.59;99588.47;7347544;19;20018;-68
2023/01/27 01:16:27;;;;;;;7.85;4.47;;;;;;;-3.31;84.37;99609.13;7349610;19;20040;-73
2023/01/27 01:18:52;;;;;;;8.88;5.38;;;;;;;-3.40;84.68;99590.16;7346868;19;20060;-72
2023/01/27 01:21:18;;;;;;;9.57;5.15;;;;;;;-3.42;84.97;99582.38;7348258;19;20295;-66
2023/01/27 01:23:44;;;;;;;7.47;4.55;;;;;;;-3.34;84.92;99590.03;7349593;19;20360;-70
2023/01/27 01:26:10;;;;;;;7.90;4.95;;;;;;;-3.41;85.38;99586.69;7343902;19;20461;-74
2023/01/27 01:28:36;;;;;;;8.38;5.00;;;;;;;-3.37;85.43;99593.56;7351521;19;20082;-72
2023/01/27 01:31:09;;;;;;;7.35;4.32;;;;;;;-3.32;85.38;99593.50;7351138;19;20022;-74
2023/01/27 01:33:35;;;;;;;11.77;5.65;;;;;;;-3.37;85.54;99584.88;7345628;19;20037;-72
2023/01/27 01:36:07;;;;;;;7.18;4.65;;;;;;;-3.36;85.82;99584.84;7348621;19;20037;-72
2023/01/27 01:38:34;;;;;;;9.40;5.50;;;;;;;-3.42;85.76;99579.75;7348246;19;20414;-75
2023/01/27 01:40:58;;;;;;;9.68;5.95;;;;;;;-3.48;85.98;99578.97;7347669;19;20006;-74
2023/01/27 01:43:25;;;;;;;6.65;4.35;;;;;;;-3.33;85.84;99587.41;7344282;19;20471;-74
2023/01/27 01:45:52;;;;;;;8.90;4.70;;;;;;;-3.27;85.88;99585.63;7340936;19;20025;-71
2023/01/27 01:48:41;;;;;;;8.20;4.53;;;;;;;-3.25;86.01;99582.06;7346884;19;20006;-72
2023/01/27 01:51:28;;;;;;;8.38;4.85;;;;;;;-3.24;85.67;99575.09;7347051;19;20070;-76
2023/01/27 01:54:13;;;;;;;7.65;4.70;;;;;;;-3.31;85.72;99577.84;7347253;19;20015;-75
2023/01/27 01:56:41;;;;;;;;;;;;;;;-3.30;85.74;99576.09;7348021;19;20354;-74
2023/01/27 01:59:14;;;;;;;8.23;4.38;;;;;;;-3.34;85.84;99577.00;7345496;19;19940;-71
2023/01/27 02:01:38;;;;;;;5.88;4.38;;;;;;;-3.35;85.88;99567.47;7348669;19;20333;-70
2023/01/27 02:04:11;;;;;;;8.68;4.50;;;;;;;-3.33;85.74;99583.94;7347253;19;20341;-67
2023/01/27 02:06:48;;;;;;;9.38;6.60;;;;;;;-3.43;85.76;99572.81;7349318;19;20025;-72
2023/01/27 02:09:13;;;;;;;7.78;4.80;;;;;;;-3.48;85.79;99576.38;7348245;19;20010;-73
2023/01/27 02:11:38;;;;;;;4.88;2.67;;;;;;;-3.37;85.56;99580.53;7351135;19;20029;-72
2023/01/27 02:14:02;;;;;;;8.50;5.30;;;;;;;-3.57;85.31;99566.97;7351973;19;20058;-72
2023/01/27 02:16:28;;;;;;;8.50;4.68;;;;;;;-3.60;85.55;99566.16;7347687;19;20525;-72
2023/01/27 02:18:53;;;;;;;5.63;3.42;;;;;;;-3.52;86.17;99566.91;7347170;19;20433;-72
2023/01/27 02:21:17;;;;;;;6.65;4.50;;;;;;;-3.61;85.99;99567.88;7350595;19;20342;-79
2023/01/27 02:24:11;;;;;;;5.15;3.95;;;;;;;-3.64;85.89;99570.56;7344716;19;20011;-72
2023/01/27 02:26:39;;;;;;;7.70;3.47;;;;;;;-3.64;85.72;99565.34;7349426;19;20077;-74
2023/01/27 02:29:08;;;;;;;6.90;3.78;;;;;;;-3.55;85.62;99560.00;7349153;19;20048;-74
2023/01/27 02:31:34;;;;;;;4.72;2.97;;;;;;;-3.51;85.77;99566.88;7345123;19;20022;-74
2023/01/27 02:34:06;;;;;;;5.50;3.30;;;;;;;-3.42;85.51;99565.88;7349314;19;20011;-73
2023/01/27 02:36:35;;;;;;;6.50;3.80;;;;;;;-3.40;85.35;99567.56;7350324;19;20419;-76
2023/01/27 02:39:02;;;;;;;4.85;3.10;;;;;;;-3.38;85.24;99562.31;7349071;19;20018;-75
2023/01/27 02:41:33;;;;;;;5.22;3.00;;;;;;;-3.37;85.00;99564.03;7349467;19;20015;-76
2023/01/27 02:43:59;;;;;;;6.15;3.55;;;;;;;-3.43;84.82;99558.94;7347605;19;20021;-75
2023/01/27 02:46:23;;;;;;;4.60;2.58;;;;;;;-3.36;84.58;99556.19;7347164;19;20038;-75
2023/01/27 02:48:48;;;;;;;6.80;3.55;;;;;;;-3.39;84.38;99555.41;7347759;19;20031;-68
2023/01/27 02:51:13;;;;;;;10.02;4.82;;;;;;;-3.56;84.11;99552.19;7345760;19;20337;-69
2023/01/27 02:53:41;;;;;;;7.45;4.75;;;;;;;-3.51;84.12;99547.78;7344100;19;20019;-69
2023/01/27 02:56:06;;;;;;;7.20;3.50;;;;;;;-3.44;84.00;99546.78;7345435;19;20032;-76
2023/01/27 02:58:31;;;;;;;5.80;3.75;;;;;;;-3.38;84.05;99547.53;7346204;19;20477;-70
2023/01/27 03:01:04;;;;;;;5.43;3.13;;;;;;;-3.39;83.63;99550.19;7343995;19;20021;-71
2023/01/27 03:03:31;;;;;;;6.50;3.55;;;;;;;-3.32;83.50;99552.66;7345620;19;20010;-69
2023/01/27 03:05:56;;;;;;;5.53;3.40;;;;;;;-3.35;83.13;99552.69;7342882;19;20007;-69
2023/01/27 03:08:20;;;;;;;4.22;3.08;;;;;;;-3.34;83.24;99541.38;7346409;19;20014;-70
2023/01/27 03:10:50;;;;;;;8.25;4.15;;;;;;;-3.41;82.95;99555.41;7344604;19;20003;-72
2023/01/27 03:13:15;;;;;;;6.82;4.43;;;;;;;-3.39;83.06;99551.06;7344500;19;20041;-70
2023/01/27 03:18:23;;;;;;;6.18;3.83;;;;;;;-3.35;82.94;99550.09;7343097;19;20023;-72
2023/01/27 03:20:48;;;;;;;6.68;4.22;;;;;;;-3.44;82.76;99563.28;7344303;19;20011;-72
2023/01/27 03:23:15;;;;;;;6.57;3.80;;;;;;;-3.50;82.73;99563.38;7345032;19;20023;-73
2023/01/27 03:25:47;;;;;;;6.32;4.53;;;;;;;-3.54;82.61;99566.94;7344437;19;20072;-72
2023/01/27 03:28:13;;;;;;;5.72;3.67;;;;;;;-3.54;82.83;99558.25;7345602;19;20033;-72
2023/01/27 03:31:04;;;;;;;6.07;3.20;;;;;;;-3.46;83.03;99554.63;7344737;19;20014;-72
2023/01/27 03:33:41;;;;;;;6.28;4.07;;;;;;;-3.49;83.09;99557.28;7343538;19;20019;-72
2023/01/27 03:47:15;;;;;;;4.90;2.97;;;;;;;-3.60;82.49;99551.38;7343696;19;20363;-74
2023/01/27 03:49:40;;;;;;;7.88;3.22;;;;;;;-3.51;82.43;99556.47;7346578;19;20305;-74
2023/01/27 03:52:04;;;;;;;7.65;4.43;;;;;;;-3.69;82.08;99562.81;7342551;19;20070;-73
2023/01/27 03:54:29;;;;;;;6.00;3.95;;;;;;;-3.68;82.01;99559.31;7345791;19;20235;-72
2023/01/27 03:56:54;;;;;;;4.70;3.30;;;;;;;-3.59;81.73;99557.44;7343001;19;20094;-72
2023/01/27 03:59:19;;;;;;;3.90;3.03;;;;;;;-3.51;81.99;99566.03;7343240;19;20010;-73
2023/01/27 04:01:43;;;;;;;5.07;3.50;;;;;;;-3.56;81.71;99567.81;7341630;19;20010;-71
2023/01/27 04:06:57;;;;;;;6.35;3.63;;;;;;;-3.48;81.36;99568.56;7340482;19;20010;-72
2023/01/27 04:09:35;;;;;;;6.95;3.88;;;;;;;-3.56;80.84;99562.63;7344460;19;20448;-72
2023/01/27 04:12:03;;;;;;;6.95;4.38;;;;;;;-3.60;80.56;99579.16;7344174;19;20014;-73
2023/01/27 04:14:42;;;;;;;7.00;4.18;;;;;;;-3.46;80.77;99575.47;7347745;19;20007;-72
2023/01/27 04:17:13;;;;;;;5.15;3.42;;;;;;;-3.52;80.79;99575.59;7343460;19;20037;-73
2023/01/27 04:19:38;;;;;;;5.68;3.78;;;;;;;-3.65;80.71;99568.84;7345733;19;20014;-72
2023/01/27 04:22:03;;;;;;;4.88;2.97;;;;;;;-3.58;80.88;99573.06;7341091;19;20013;-74
2023/01/27 04:24:27;;;;;;;6.15;3.38;;;;;;;-3.54;80.75;99574.75;7342443;19;20047;-72
2023/01/27 04:26:58;;;;;;;7.97;3.08;;;;;;;-3.54;80.58;99576.47;7339988;19;20018;-73
2023/01/27 04:29:25;;;;;;;7.53;4.88;;;;;;;-3.62;80.54;99579.22;7343562;19;20031;-73
2023/01/27 04:31:50;;;;;;;5.55;3.30;;;;;;;-3.51;80.62;99577.31;7342378;19;20464;-72
2023/01/27 04:34:15;;;;;;;8.77;4.20;;;;;;;-3.47;80.36;99583.31;7340375;19;20358;-73
2023/01/27 04:36:40;;;;;;;6.68;3.90;;;;;;;-3.38;80.54;99578.81;7342434;19;20006;-72
2023/01/27 04:39:06;;;;;;;7.63;4.68;;;;;;;-3.44;80.33;99576.31;7346698;19;20022;-73
2023/01/27 04:41:31;;;;;;;7.05;3.67;;;;;;;-3.33;80.35;99579.59;7346346;19;20399;-73
2023/01/27 04:43:55;;;;;;;5.25;3.83;;;;;;;-3.35;80.38;99578.75;7345356;19;20335;-72
2023/01/27 04:46:20;;;;;;;6.75;3.97;;;;;;;-3.46;80.27;99588.50;7340027;19;20006;-73
2023/01/27 04:48:45;;;;;;;8.35;3.92;;;;;;;-3.41;80.37;99588.44;7343310;19;20010;-72
2023/01/27 04:51:09;;;;;;;7.03;4.57;;;;;;;-3.47;80.37;99591.13;7341559;19;20817;-72
2023/01/27 04:53:34;;;;;;;7.45;5.10;;;;;;;-3.46;80.47;99585.91;7347886;19;20015;-71
2023/01/27 04:56:14;;;;;;;10.30;4.85;;;;;;;-3.39;80.31;99586.69;7342255;19;20495;-72
2023/01/27 04:58:39;;;;;;;10.35;4.60;;;;;;;-3.41;80.16;99593.66;7343533;19;20019;-72
2023/01/27 05:01:04;;;;;;;10.05;4.93;;;;;;;-3.44;80.24;99594.56;7339241;19;20003;-72
2023/01/27 05:03:28;;;;;;;6.78;4.20;;;;;;;-3.38;80.44;99594.44;7342801;19;20351;-72
2023/01/27 05:05:53;;;;;;;8.55;5.07;;;;;;;-3.37;80.38;99590.94;7341822;19;20488;-75
2023/01/27 05:08:18;;;;;;;6.78;4.38;;;;;;;-3.26;80.44;99585.56;7341929;19;20018;-73
2023/01/27 05:10:44;;;;;;;6.50;4.20;;;;;;;-3.17;80.61;99600.22;7342565;19;20114;-73
2023/01/27 05:13:08;;;;;;;6.88;3.70;;;;;;;-3.18;80.27;99595.88;7343199;19;20010;-73
2023/01/27 05:15:33;;;;;;;7.53;4.43;;;;;;;-3.26;80.03;99588.16;7340779;19;20492;-74
2023/01/27 05:17:57;;;;;;;7.05;3.75;;;;;;;-3.27;80.34;99596.03;7342795;19;20032;-72
2023/01/27 05:20:22;;;;;;;8.13;4.70;;;;;;;-3.28;80.41;99604.75;7342166;19;20023;-72
2023/01/27 05:22:47;;;;;;;8.73;5.10;;;;;;;-3.38;81.01;99604.88;7341947;19;20022;-73
2023/01/27 05:25:11;;;;;;;6.57;4.72;;;;;;;-3.39;81.14;99605.78;7339135;19;20011;-73
2023/01/27 05:27:36;;;;;;;7.13;3.63;;;;;;;-3.34;81.40;99623.94;7338281;19;20028;-72
2023/01/27 05:30:01;;;;;;;8.02;4.03;;;;;;;-3.32;81.64;99611.75;7342026;19;20003;-72
2023/01/27 05:32:28;;;;;;;7.88;4.35;;;;;;;-3.31;81.92;99614.31;7342446;19;20026;-76
2023/01/27 05:34:53;;;;;;;8.57;5.03;;;;;;;-3.28;82.08;99615.16;7343771;19;20009;-76
2023/01/27 05:37:17;;;;;;;8.55;4.57;;;;;;;-3.32;82.28;99620.44;7342680;19;20011;-76
2023/01/27 05:39:42;;;;;;;10.75;6.57;;;;;;;-3.32;82.39;99619.56;7343000;19;20022;-76
2023/01/27 05:42:07;;;;;;;6.78;4.55;;;;;;;-3.33;82.67;99616.09;7343164;19;20026;-76
2023/01/27 05:44:31;;;;;;;8.32;4.85;;;;;;;-3.22;82.77;99620.28;7339486;19;20014;-75
2023/01/27 05:46:56;;;;;;;7.68;5.13;;;;;;;-3.20;82.45;99629.78;7340807;19;20463;-75
2023/01/27 05:49:20;;;;;;;6.72;4.28;;;;;;;-3.22;82.21;99618.53;7339754;19;20015;-75
2023/01/27 05:51:45;;;;;;;9.43;4.60;;;;;;;-3.12;81.97;99627.91;7342088;19;20011;-76
2023/01/27 05:54:09;;;;;;;9.57;4.40;;;;;;;-3.20;82.11;99628.94;7339713;19;20023;-76
2023/01/27 05:56:34;;;;;;;6.32;4.00;;;;;;;-3.20;82.02;99635.00;7343221;19;20011;-77
2023/01/27 05:58:59;;;;;;;7.95;4.10;;;;;;;-3.20;82.09;99629.78;7350088;19;20393;-77
2023/01/27 06:01:32;;;;;;;6.90;4.18;;;;;;;-3.27;82.14;99635.13;7350231;19;20461;-77
2023/01/27 06:03:57;;;;;;;9.43;4.80;;;;;;;-3.19;82.20;99630.66;7350733;19;20042;-77
2023/01/27 06:06:23;;;;;;;8.13;5.22;;;;;;;-3.09;82.18;99637.44;7346621;19;20010;-77
2023/01/27 06:08:49;;;;;;;7.15;3.88;;;;;;;-3.06;81.74;99633.03;7347057;19;20078;-80
2023/01/27 06:11:16;;;;;;;7.70;4.50;;;;;;;-3.11;81.60;99632.25;7348578;19;20019;-75
2023/01/27 06:13:41;;;;;;;10.70;5.40;;;;;;;-3.05;81.70;99639.13;7348298;19;20326;-75
2023/01/27 06:16:08;;;;;;;8.25;3.90;;;;;;;-3.03;81.57;99632.09;7352610;19;20349;-79
2023/01/27 06:18:33;;;;;;;7.43;4.72;;;;;;;-3.04;81.43;99635.59;7349236;19;20018;-77
2023/01/27 06:21:01;;;;;;;7.78;4.85;;;;;;;-3.07;81.53;99635.66;7350768;19;20029;-78
2023/01/27 06:23:27;;;;;;;7.93;4.30;;;;;;;-3.02;81.42;99639.03;7352259;19;20021;-79
2023/01/27 06:25:52;;;;;;;9.95;3.72;;;;;;;-3.04;81.29;99641.69;7348819;19;20010;-78
2023/01/27 06:28:16;;;;;;;9.10;5.00;;;;;;;-3.09;81.25;99637.44;7349747;19;20015;-78
2023/01/27 06:30:41;;;;;;;8.88;4.10;;;;;;;-3.19;81.35;99636.72;7348039;19;20471;-80
2023/01/27 06:33:06;;;;;;;9.13;5.30;;;;;;;-3.15;81.33;99632.31;7350992;19;20014;-78
2023/01/27 06:35:32;;;;;;;6.75;4.03;;;;;;;-3.18;81.43;99637.59;7347903;19;20010;-80
2023/01/27 06:37:58;;;;;;;6.10;3.35;;;;;;;-3.18;81.36;99640.19;7351115;19;20037;-78
2023/01/27 06:40:24;;;;;;;10.55;5.78;;;;;;;-3.35;81.31;99638.72;7351073;19;20014;-75
2023/01/27 06:42:49;;;;;;;9.02;4.50;;;;;;;-3.32;81.57;99632.59;7355019;19;20019;-75
2023/01/27 06:45:13;;;;;;;10.82;5.95;;;;;;;-3.34;81.35;99632.63;7353311;19;20032;-75
2023/01/27 06:47:39;;;;;;;8.57;4.97;;;;;;;-3.22;81.53;99636.78;7347081;19;20015;-77
2023/01/27 06:50:04;;;;;;;7.65;3.90;;;;;;;-3.08;81.34;99641.78;7349395;19;20018;-75
2023/01/27 06:52:29;;;;;;;6.35;4.07;;;;;;;-3.11;81.30;99639.19;7347284;19;20006;-77
2023/01/27 06:54:53;;;;;;;10.88;5.38;;;;;;;-3.16;80.90;99641.03;7347413;19;20021;-76
2023/01/27 06:57:18;;;;;;;10.70;4.30;;;;;;;-3.05;81.15;99641.72;7348680;19;20316;-77
2023/01/27 06:59:43;;;;;;;6.50;3.83;;;;;;;-3.00;80.69;99638.13;7348432;19;20353;-77
2023/01/27 07:02:11;;;;;;;8.07;4.78;;;;;;;-3.06;80.25;99642.59;7349425;19;20022;-78
2023/01/27 07:04:36;;;;;;;6.22;3.78;;;;;;;-2.90;80.39;99649.28;7346215;19;20018;-77
2023/01/27 07:07:00;;;;;;;10.32;6.15;;;;;;;-2.83;80.30;99645.69;7346159;19;20043;-76
2023/01/27 07:09:25;;;;;;;7.25;4.20;;;;;;;-2.83;79.78;99652.66;7344738;19;20044;-76
2023/01/27 07:11:50;;;;;;;7.18;4.38;;;;;;;-2.77;79.72;99640.34;7348353;19;20018;-76
2023/01/27 07:14:15;;;;;;;8.13;3.95;;;;;;;-2.72;79.64;99643.75;7348462;19;20381;-77
2023/01/27 07:16:40;;;;;;;7.43;4.35;;;;;;;-2.75;79.49;99654.22;7348214;19;20467;-77
2023/01/27 07:19:04;;;;;;;8.73;4.45;;;;;;;-2.68;79.38;99654.97;7347154;19;20013;-77
2023/01/27 07:21:29;;;;;;;6.60;4.28;;;;;;;-2.73;78.99;99647.25;7349329;19;20011;-77
2023/01/27 07:23:53;;;;;;;10.90;5.18;;;;;;;-2.82;78.64;99644.78;7344756;19;20010;-76
2023/01/27 07:26:18;;;;;;;6.97;4.75;;;;;;;-2.75;78.94;99663.81;7347292;19;20010;-76
2023/01/27 07:28:43;;;;;;;7.35;4.70;;;;;;;-2.78;78.78;99653.41;7347107;19;20524;-77
2023/01/27 07:31:07;;;;;;;9.10;5.18;;;;;;;-2.78;78.63;99645.59;7348112;19;20018;-77
2023/01/27 07:33:32;;;;;;;7.82;5.35;;;;;;;-2.69;78.68;99651.50;7347525;19;20335;-78
2023/01/27 07:35:56;;;;;;;8.77;5.03;;;;;;;-2.62;78.44;99644.44;7343318;19;20485;-77
2023/01/27 07:38:21;;;;;;;8.60;4.05;;;;;;;-2.48;78.72;99657.25;7346129;19;20006;-78
2023/01/27 07:40:46;;;;;;;7.47;4.57;;;;;;;-2.57;77.97;99659.09;7342552;19;20106;-80
2023/01/27 07:43:11;;;;;;;6.03;4.00;;;;;;;-2.45;78.16;99655.41;7341062;19;20014;-79
2023/01/27 07:45:38;;;;;;;9.35;4.47;;;;;;;-2.50;77.59;99661.63;7342264;19;20037;-77
2023/01/27 07:48:05;;;;;;;8.27;4.47;;;;;;;-2.39;77.79;99668.38;7344819;19;20011;-76
2023/01/27 07:50:29;;;;;;;6.05;3.72;;;;;;;-2.26;77.84;99669.00;7344207;19;20483;-77
2023/01/27 07:53:00;;;;;;;8.20;4.88;;;;;;;-2.33;77.05;99656.94;7342847;19;20473;-80
2023/01/27 07:55:25;;;;;;;9.43;4.28;;;;;;;-2.29;77.24;99669.91;7344252;19;20074;-80
2023/01/27 07:57:52;;;;;;;7.57;4.85;;;;;;;-2.19;77.43;99681.03;7342961;19;20030;-80
2023/01/27 08:00:18;;;;;;;9.10;5.03;;;;;;;-2.23;76.76;99674.13;7343919;19;20014;-74
2023/01/27 08:02:43;;;;;;;5.75;3.80;;;;;;;-2.13;76.68;99673.06;7341487;19;20018;-73
2023/01/27 08:05:07;;;;;;;6.65;4.13;;;;;;;-2.13;76.38;99673.06;7344102;19;20021;-71
2023/01/27 08:07:32;;;;;;;5.38;3.63;;;;;;;-2.05;76.77;99678.16;7342875;19;20018;-72
2023/01/27 08:09:57;;;;;;;8.70;4.22;;;;;;;-2.14;76.36;99663.50;7342536;19;20025;-73
2023/01/27 08:12:22;;;;;;;5.45;3.75;;;;;;;-2.18;76.10;99674.06;7343850;19;20022;-74
2023/01/27 08:14:46;;;;;;;7.88;4.28;;;;;;;-2.14;76.28;99673.13;7344298;19;20038;-73
2023/01/27 08:17:11;;;;;;;8.43;4.85;;;;;;;-2.08;76.17;99668.63;7345140;19;20082;-73
2023/01/27 08:19:35;;;;;;;6.88;4.03;;;;;;;-2.02;76.21;99678.06;7344941;19;20010;-74
2023/01/27 08:22:00;;;;;;;6.90;4.32;;;;;;;-2.17;75.88;99674.03;7343262;19;20026;-72
2023/01/27 08:24:25;;;;;;;5.75;3.50;;;;;;;-2.05;76.17;99684.25;7348774;19;20105;-74
2023/01/27 08:26:50;;;;;;;7.10;3.95;;;;;;;-2.08;76.18;99683.44;7347152;19;20015;-74
2023/01/27 08:29:14;;;;;;;7.75;3.72;;;;;;;-2.13;76.12;99680.91;7342964;19;20479;-74
2023/01/27 08:31:40;;;;;;;7.85;3.90;;;;;;;-2.16;76.30;99690.56;7346424;19;20021;-75
2023/01/27 08:34:05;;;;;;;8.25;4.85;;;;;;;-2.25;76.08;99686.34;7342511;19;20010;-75
2023/01/27 08:36:30;;;;;;;11.85;5.60;;;;;;;-2.27;76.50;99683.81;7342692;19;20018;-76
2023/01/27 08:38:55;;;;;;;8.68;5.05;;;;;;;-2.24;76.30;99685.47;7342431;19;20298;-73
2023/01/27 08:41:22;;;;;;;7.78;4.65;;;;;;;-2.29;76.32;99674.28;7342051;19;20027;-75
2023/01/27 08:43:47;;;;;;;9.23;4.95;;;;;;;-2.21;76.37;99678.44;7341889;19;20022;-74
2023/01/27 08:46:12;;;;;;;8.23;5.03;;;;;;;-2.27;76.15;99670.75;7341816;19;20007;-78
2023/01/27 08:48:37;;;;;;;8.32;5.18;;;;;;;-2.32;76.39;99674.31;7343209;19;20030;-79
2023/01/27 08:51:04;;;;;;;9.25;4.88;;;;;;;-2.16;76.67;99678.38;7341054;19;20029;-77
2023/01/27 08:53:29;;;;;;;7.55;4.70;;;;;;;-2.27;76.40;99672.50;7344393;19;20038;-77
2023/01/27 08:56:01;;;;;;;7.47;4.70;;;;;;;-2.24;76.57;99682.84;7341463;19;20010;-78
2023/01/27 08:58:25;;;;;;;7.43;4.43;;;;;;;-2.23;76.58;99674.13;7344396;19;20351;-78
2023/01/27 09:00:50;;;;;;;8.02;5.13;;;;;;;-2.22;76.57;99678.47;7346619;19;20023;-78
2023/01/27 09:03:15;;;;;;;8.60;5.40;;;;;;;-2.36;76.55;99672.66;7343008;19;20346;-78
2023/01/27 09:05:40;;;;;;;10.38;5.18;;;;;;;-2.23;76.70;99680.22;7344132;19;20014;-78
2023/01/27 09:08:05;;;;;;;9.02;6.30;;;;;;;-2.15;76.67;99682.69;7342731;19;20019;-78
2023/01/27 09:10:30;;;;;;;9.18;5.35;;;;;;;-2.07;76.48;99675.56;7345291;19;20516;-77
2023/01/27 09:12:55;;;;;;;9.80;4.75;;;;;;;-2.00;76.18;99679.78;7344777;19;20453;-79
2023/01/27 09:15:19;;;;;;;8.98;5.00;;;;;;;-2.01;76.08;99685.88;7341429;19;20011;-79
2023/01/27 09:17:44;;;;;;;7.05;4.32;;;;;;;-1.94;76.12;99671.81;7342420;19;20010;-78
2023/01/27 09:20:10;;;;;;;6.35;4.63;;;;;;;-1.85;75.95;99686.44;7341868;19;20010;-75
2023/01/27 09:22:36;;;;;;;8.98;4.75;;;;;;;-1.73;75.88;99680.09;7341827;19;20014;-74
2023/01/27 09:25:02;;;;;;;9.60;5.57;;;;;;;-1.72;75.67;99676.59;7342064;19;20356;-78
2023/01/27 09:27:28;;;;;;;7.97;5.32;;;;;;;-1.79;75.46;99675.84;7341242;19;20031;-76
2023/01/27 09:29:53;;;;;;;8.38;5.78;;;;;;;-1.84;75.51;99672.50;7341920;19;20014;-78
2023/01/27 09:32:17;;;;;;;8.27;5.10;;;;;;;-1.91;75.67;99671.72;7344813;19;20325;-75
2023/01/27 09:34:42;;;;;;;9.80;6.63;;;;;;;-1.96;75.60;99684.06;7349566;19;20006;-76
2023/01/27 09:37:09;;;;;;;7.60;4.68;;;;;;;-1.89;76.10;99679.53;7346910;19;20372;-76
2023/01/27 09:39:46;;;;;;;8.45;6.03;;;;;;;-2.16;76.36;99686.19;7348748;19;20026;-76
2023/01/27 09:42:44;;;;;;;7.95;5.28;;;;;;;-2.14;76.59;99684.41;7346594;19;20019;-76
2023/01/27 09:45:18;;;;;;;13.65;5.85;;;;;;;-2.20;77.25;99682.78;7350326;19;20011;-77
2023/01/27 09:48:20;;;;;;;10.02;5.80;;;;;;;-1.99;77.08;99683.25;7345370;19;20019;-77
2023/01/27 09:50:55;;;;;;;8.35;4.47;;;;;;;-1.89;77.14;99685.63;7344957;19;20007;-78
2023/01/27 09:53:59;;;;;;;8.20;4.97;;;;;;;-1.79;76.66;99691.53;7346772;19;20026;-78
2023/01/27 09:56:52;;;;;;;9.60;5.60;;;;;;;-1.73;76.67;99686.19;7345559;19;20511;-77
2023/01/27 09:59:35;;;;;;;7.90;5.07;;;;;;;-1.73;76.32;99680.09;7343995;19;20090;-78
2023/01/27 10:02:30;;;;;;;9.35;5.03;;;;;;;-1.75;76.46;99681.88;7345500;19;20059;-77
2023/01/27 10:05:07;;;;;;;10.20;5.00;;;;;;;-1.71;76.39;99678.31;7344990;19;20363;-78
2023/01/27 10:07:40;;;;;;;9.07;5.15;;;;;;;-1.62;76.27;99676.38;7344952;19;20027;-78
2023/01/27 10:10:15;;;;;;;8.70;5.13;;;;;;;-1.50;76.38;99670.00;7345192;19;20018;-77
2023/01/27 10:13:02;;;;;;;10.00;5.38;;;;;;;-1.60;75.90;99678.94;7346656;19;20357;-76
2023/01/27 10:16:00;;;;;;;7.75;4.95;;;;;;;-1.53;76.01;99678.78;7344815;19;20423;-74
2023/01/27 10:18:44;;;;;;;8.88;5.95;;;;;;;-1.77;76.28;99678.44;7343191;19;20674;-73
2023/01/27 10:21:26;;;;;;;11.32;6.20;;;;;;;-1.82;76.44;99673.31;7344580;19;20019;-72
2023/01/27 10:24:02;;;;;;;6.18;4.28;;;;;;;-1.68;76.79;99673.88;7343284;19;20006;-72
2023/01/27 10:26:27;;;;;;;8.38;5.15;;;;;;;-1.66;76.62;99677.31;7344583;19;20022;-72
2023/01/27 10:29:00;;;;;;;11.52;5.70;;;;;;;-1.70;76.72;99672.19;7344843;19;20011;-73
2023/01/27 10:31:31;;;;;;;10.57;6.47;;;;;;;-1.81;76.91;99682.88;7346548;19;20018;-74
2023/01/27 10:34:00;;;;;;;9.00;5.22;;;;;;;-1.66;77.00;99689.50;7343317;19;20014;-75
2023/01/27 10:36:31;;;;;;;11.50;5.88;;;;;;;-1.51;76.95;99681.34;7346217;19;20019;-74
2023/01/27 10:39:16;;;;;;;9.90;5.75;;;;;;;-1.43;76.76;99681.16;7345037;19;20453;-76
2023/01/27 10:42:03;;;;;;;6.43;4.38;;;;;;;-1.47;76.64;99680.41;7346191;19;20011;-76
2023/01/27 10:44:48;;;;;;;8.60;5.07;;;;;;;-1.52;76.63;99682.25;7344065;19;20014;-76
2023/01/27 10:47:22;;;;;;;8.23;4.97;;;;;;;-1.55;76.58;99688.38;7344174;19;20021;-79
2023/01/27 10:49:58;;;;;;;10.05;5.40;;;;;;;-1.62;76.74;99692.03;7347820;19;20010;-76
2023/01/27 10:52:33;;;;;;;6.82;3.78;;;;;;;-1.55;76.66;99691.00;7346515;19;20020;-78
2023/01/27 10:55:20;;;;;;;8.15;4.43;;;;;;;-1.54;76.72;99682.28;7344749;19;20030;-74
2023/01/27 10:58:12;;;;;;;9.93;5.63;;;;;;;-1.66;77.08;99686.91;7344822;19;20011;-74
2023/01/27 11:00:49;;;;;;;12.13;5.35;;;;;;;-1.57;77.17;99690.19;7343985;19;20342;-74
2023/01/27 11:03:23;;;;;;;8.00;5.38;;;;;;;-1.56;77.07;99694.50;7347201;19;20019;-75
2023/01/27 11:05:55;;;;;;;10.15;5.45;;;;;;;-1.61;77.04;99705.97;7345071;19;20015;-75
2023/01/27 11:08:28;;;;;;;9.85;5.85;;;;;;;-1.78;77.49;99695.88;7344619;19;20074;-74
2023/01/27 11:13:41;;;;;;;9.35;4.78;;;;;;;-1.72;77.65;99702.72;7345086;19;20468;-75
2023/01/27 11:16:15;;;;;;;10.23;6.35;;;;;;;-1.68;77.84;99704.38;7343443;19;20474;-74
2023/01/27 11:18:42;;;;;;;11.05;6.63;;;;;;;-1.78;77.85;99703.69;7344249;19;20027;-74
2023/01/27 11:21:16;;;;;;;9.70;4.93;;;;;;;-1.71;77.59;99696.63;7345779;19;20010;-74
2023/01/27 11:23:45;;;;;;;11.52;7.78;;;;;;;-1.80;77.72;99694.16;7342988;19;20015;-74
2023/01/27 11:26:40;;;;;;;8.57;5.30;;;;;;;-1.72;78.12;99703.59;7345254;19;20472;-74
2023/01/27 11:29:15;;;;;;;7.15;4.70;;;;;;;-1.60;78.22;99697.25;7343778;19;20007;-77
2023/01/27 11:32:01;;;;;;;8.63;5.25;;;;;;;-1.65;77.90;99689.50;7348133;19;20018;-74
2023/01/27 11:34:37;;;;;;;12.10;8.50;;;;;;;-1.77;78.09;99689.75;7344544;19;20029;-76
2023/01/27 11:37:24;;;;;;;12.43;7.30;;;;;;;-1.64;77.83;99695.56;7343836;19;20502;-73
2023/01/27 11:39:48;;;;;;;12.05;6.72;;;;;;;-1.69;78.14;99690.44;7345908;19;20006;-76
2023/01/27 11:42:14;;;;;;;12.57;6.82;;;;;;;-1.72;78.30;99687.06;7346036;19;20030;-75
2023/01/27 11:44:42;;;;;;;9.77;5.80;;;;;;;-1.74;78.22;99704.50;7341478;19;20372;-77
2023/01/27 11:47:10;;;;;;;12.77;7.70;;;;;;;-1.83;78.41;99693.38;7344298;19;20455;-76
2023/01/27 11:49:44;;;;;;;11.07;6.63;;;;;;;-1.78;78.36;99687.16;7345557;19;20006;-76
2023/01/27 11:52:14;;;;;;;10.13;6.57;;;;;;;-1.72;78.43;99687.91;7346953;19;20022;-75
2023/01/27 11:54:47;;;;;;;10.07;6.18;;;;;;;-1.80;78.54;99692.41;7345169;19;20493;-75
2023/01/27 11:57:19;;;;;;;10.13;6.50;;;;;;;-1.84;78.65;99698.63;7343823;19;20022;-75
2023/01/27 11:59:44;;;;;;;9.93;6.28;;;;;;;-1.75;78.84;99708.88;7345234;19;20027;-75
2023/01/27 12:02:29;;;;;;;12.93;7.22;;;;;;;-1.76;78.84;99706.28;7345543;19;20006;-75
2023/01/27 12:05:18;;;;;;;9.50;5.75;;;;;;;-1.60;78.67;99715.53;7344248;19;20052;-77
2023/01/27 12:07:53;;;;;;;10.93;5.70;;;;;;;-1.68;78.65;99712.22;7342685;19;20010;-77